sensor_id;sensor_type;location;lat;lon;timestamp;P1;durP1;ratioP1;P2;durP2;ratioP2
13185;SDS011;6658;53.080;7.428;2023-02-01T00:01:58;13.80;;;3.30;;
13185;SDS011;6658;53.080;7.428;2023-02-01T00:04:25;11.67;;;3.67;;
13185;SDS011;6658;53.080;7.428;2023-02-01T00:06:50;11.60;;;3.20;;
13185;SDS011;6658;53.080;7.428;2023-02-01T00:09:16;12.33;;;3.57;;
13185;SDS011;6658;53.080;7.428;2023-02-01T00:11:42;9.10;;;3.10;;
13185;SDS011;6658;53.080;7.428;2023-02-01T00:14:07;10.97;;;4.00;;
13185;SDS011;6658;53.080;7.428;2023-02-01T00:16:33;8.03;;;3.47;;
13185;SDS011;6658;53.080;7.428;2023-02-01T00:19:06;10.30;;;3.47;;
13185;SDS011;6658;53.080;7.428;2023-02-01T00:21:38;11.87;;;3.40;;
13185;SDS011;6658;53.080;7.428;2023-02-01T00:24:04;11.00;;;4.10;;
13185;SDS011;6658;53.080;7.428;2023-02-01T00:26:34;13.00;;;3.37;;
13185;SDS011;6658;53.080;7.428;2023-02-01T00:29:02;11.43;;;3.17;;
13185;SDS011;6658;53.080;7.428;2023-02-01T00:31:30;13.07;;;3.77;;
13185;SDS011;6658;53.080;7.428;2023-02-01T00:33:56;14.77;;;3.83;;
13185;SDS011;6658;53.080;7.428;2023-02-01T00:36:21;11.57;;;3.17;;
13185;SDS011;6658;53.080;7.428;2023-02-01T00:38:47;9.13;;;2.80;;
13185;SDS011;6658;53.080;7.428;2023-02-01T00:41:14;10.00;;;3.30;;
13185;SDS011;6658;53.080;7.428;2023-02-01T00:43:44;11.30;;;3.13;;
13185;SDS011;6658;53.080;7.428;2023-02-01T00:46:11;14.07;;;3.73;;
13185;SDS011;6658;53.080;7.428;2023-02-01T00:48:38;12.57;;;3.73;;
13185;SDS011;6658;53.080;7.428;2023-02-01T00:51:09;13.23;;;3.23;;
13185;SDS011;6658;53.080;7.428;2023-02-01T00:53:36;13.10;;;3.50;;
13185;SDS011;6658;53.080;7.428;2023-02-01T00:56:02;11.27;;;3.53;;
13185;SDS011;6658;53.080;7.428;2023-02-01T00:58:30;10.67;;;3.53;;
13185;SDS011;6658;53.080;7.428;2023-02-01T01:01:13;10.77;;;3.03;;
13185;SDS011;6658;53.080;7.428;2023-02-01T01:03:48;9.93;;;3.57;;
13185;SDS011;6658;53.080;7.428;2023-02-01T01:06:17;12.63;;;3.50;;
13185;SDS011;6658;53.080;7.428;2023-02-01T01:08:47;11.47;;;2.93;;
13185;SDS011;6658;53.080;7.428;2023-02-01T01:11:16;10.67;;;3.03;;
13185;SDS011;6658;53.080;7.428;2023-02-01T01:13:45;10.93;;;3.30;;
13185;SDS011;6658;53.080;7.428;2023-02-01T01:16:12;11.87;;;3.57;;
13185;SDS011;6658;53.080;7.428;2023-02-01T01:18:39;14.17;;;3.07;;
13185;SDS011;6658;53.080;7.428;2023-02-01T01:21:05;12.87;;;3.60;;
13185;SDS011;6658;53.080;7.428;2023-02-01T01:23:31;10.77;;;3.87;;
13185;SDS011;6658;53.080;7.428;2023-02-01T01:25:57;9.87;;;3.03;;
13185;SDS011;6658;53.080;7.428;2023-02-01T01:28:23;11.73;;;3.73;;
13185;SDS011;6658;53.080;7.428;2023-02-01T01:30:48;12.17;;;3.20;;
13185;SDS011;6658;53.080;7.428;2023-02-01T01:33:14;9.80;;;2.50;;
13185;SDS011;6658;53.080;7.428;2023-02-01T01:35:40;10.23;;;3.97;;
13185;SDS011;6658;53.080;7.428;2023-02-01T01:38:06;10.03;;;2.97;;
13185;SDS011;6658;53.080;7.428;2023-02-01T01:40:31;8.17;;;2.83;;
13185;SDS011;6658;53.080;7.428;2023-02-01T01:42:57;10.77;;;3.20;;
13185;SDS011;6658;53.080;7.428;2023-02-01T01:45:28;10.47;;;3.83;;
13185;SDS011;6658;53.080;7.428;2023-02-01T01:47:59;8.47;;;2.93;;
13185;SDS011;6658;53.080;7.428;2023-02-01T01:50:35;15.60;;;3.43;;
13185;SDS011;6658;53.080;7.428;2023-02-01T01:53:09;7.63;;;2.43;;
13185;SDS011;6658;53.080;7.428;2023-02-01T01:55:38;10.13;;;3.10;;
13185;SDS011;6658;53.080;7.428;2023-02-01T01:58:09;8.70;;;3.37;;
13185;SDS011;6658;53.080;7.428;2023-02-01T02:00:42;13.37;;;3.73;;
13185;SDS011;6658;53.080;7.428;2023-02-01T02:03:14;9.73;;;3.17;;
13185;SDS011;6658;53.080;7.428;2023-02-01T02:05:45;11.37;;;2.97;;
13185;SDS011;6658;53.080;7.428;2023-02-01T02:08:12;11.17;;;3.30;;
13185;SDS011;6658;53.080;7.428;2023-02-01T02:10:38;9.50;;;3.07;;
13185;SDS011;6658;53.080;7.428;2023-02-01T02:13:23;8.43;;;2.40;;
13185;SDS011;6658;53.080;7.428;2023-02-01T02:44:14;11.03;;;3.50;;
13185;SDS011;6658;53.080;7.428;2023-02-01T02:48:17;9.20;;;2.57;;
13185;SDS011;6658;53.080;7.428;2023-02-01T02:50:13;7.30;;;2.53;;
13185;SDS011;6658;53.080;7.428;2023-02-01T02:53:04;8.60;;;2.40;;
13185;SDS011;6658;53.080;7.428;2023-02-01T02:56:03;7.70;;;3.10;;
13185;SDS011;6658;53.080;7.428;2023-02-01T02:58:50;9.30;;;2.60;;
13185;SDS011;6658;53.080;7.428;2023-02-01T03:01:35;9.90;;;3.07;;
13185;SDS011;6658;53.080;7.428;2023-02-01T03:04:21;9.93;;;3.00;;
13185;SDS011;6658;53.080;7.428;2023-02-01T03:06:48;11.10;;;2.93;;
13185;SDS011;6658;53.080;7.428;2023-02-01T03:09:34;11.07;;;2.90;;
13185;SDS011;6658;53.080;7.428;2023-02-01T03:12:03;9.20;;;2.80;;
13185;SDS011;6658;53.080;7.428;2023-02-01T03:14:54;8.03;;;2.90;;
13185;SDS011;6658;53.080;7.428;2023-02-01T03:17:27;10.13;;;2.77;;
13185;SDS011;6658;53.080;7.428;2023-02-01T03:19:59;12.30;;;3.47;;
13185;SDS011;6658;53.080;7.428;2023-02-01T03:22:28;9.13;;;3.03;;
13185;SDS011;6658;53.080;7.428;2023-02-01T03:25:02;9.03;;;2.87;;
13185;SDS011;6658;53.080;7.428;2023-02-01T03:30:15;12.83;;;3.70;;
13185;SDS011;6658;53.080;7.428;2023-02-01T03:32:48;9.37;;;3.03;;
13185;SDS011;6658;53.080;7.428;2023-02-01T03:35:32;12.53;;;3.00;;
13185;SDS011;6658;53.080;7.428;2023-02-01T03:41:03;11.93;;;3.80;;
13185;SDS011;6658;53.080;7.428;2023-02-01T03:43:42;10.13;;;3.27;;
13185;SDS011;6658;53.080;7.428;2023-02-01T03:46:17;11.77;;;3.73;;
13185;SDS011;6658;53.080;7.428;2023-02-01T03:48:48;17.47;;;5.17;;
13185;SDS011;6658;53.080;7.428;2023-02-01T03:51:16;10.07;;;3.43;;
13185;SDS011;6658;53.080;7.428;2023-02-01T03:53:45;9.87;;;2.87;;
13185;SDS011;6658;53.080;7.428;2023-02-01T03:56:14;16.03;;;4.93;;
13185;SDS011;6658;53.080;7.428;2023-02-01T03:58:43;10.40;;;3.47;;
13185;SDS011;6658;53.080;7.428;2023-02-01T04:01:23;10.87;;;3.47;;
13185;SDS011;6658;53.080;7.428;2023-02-01T04:03:49;10.83;;;3.17;;
13185;SDS011;6658;53.080;7.428;2023-02-01T04:06:16;12.33;;;3.40;;
13185;SDS011;6658;53.080;7.428;2023-02-01T04:08:42;12.67;;;3.40;;
13185;SDS011;6658;53.080;7.428;2023-02-01T04:11:07;12.60;;;3.10;;
13185;SDS011;6658;53.080;7.428;2023-02-01T04:13:33;11.23;;;3.30;;
13185;SDS011;6658;53.080;7.428;2023-02-01T04:15:59;6.03;;;2.27;;
13185;SDS011;6658;53.080;7.428;2023-02-01T04:18:24;9.83;;;3.33;;
13185;SDS011;6658;53.080;7.428;2023-02-01T04:20:50;11.33;;;3.13;;
13185;SDS011;6658;53.080;7.428;2023-02-01T04:23:16;7.70;;;3.10;;
13185;SDS011;6658;53.080;7.428;2023-02-01T04:25:41;11.33;;;3.40;;
13185;SDS011;6658;53.080;7.428;2023-02-01T04:28:07;8.47;;;3.27;;
13185;SDS011;6658;53.080;7.428;2023-02-01T04:30:33;9.03;;;2.80;;
13185;SDS011;6658;53.080;7.428;2023-02-01T04:32:58;11.67;;;3.03;;
13185;SDS011;6658;53.080;7.428;2023-02-01T04:35:24;10.57;;;3.17;;
13185;SDS011;6658;53.080;7.428;2023-02-01T04:37:50;6.17;;;2.60;;
13185;SDS011;6658;53.080;7.428;2023-02-01T04:40:15;10.20;;;3.03;;
13185;SDS011;6658;53.080;7.428;2023-02-01T04:42:41;7.90;;;2.57;;
13185;SDS011;6658;53.080;7.428;2023-02-01T04:45:07;10.63;;;2.43;;
13185;SDS011;6658;53.080;7.428;2023-02-01T04:47:34;7.73;;;3.63;;
13185;SDS011;6658;53.080;7.428;2023-02-01T04:49:59;11.33;;;3.63;;
13185;SDS011;6658;53.080;7.428;2023-02-01T04:52:25;11.70;;;3.50;;
13185;SDS011;6658;53.080;7.428;2023-02-01T04:54:52;14.03;;;3.33;;
13185;SDS011;6658;53.080;7.428;2023-02-01T04:57:19;12.00;;;2.90;;
13185;SDS011;6658;53.080;7.428;2023-02-01T04:59:45;8.90;;;3.30;;
13185;SDS011;6658;53.080;7.428;2023-02-01T05:02:10;14.17;;;3.57;;
13185;SDS011;6658;53.080;7.428;2023-02-01T05:04:36;8.90;;;3.03;;
13185;SDS011;6658;53.080;7.428;2023-02-01T05:07:02;7.33;;;2.93;;
13185;SDS011;6658;53.080;7.428;2023-02-01T05:09:27;12.23;;;3.20;;
13185;SDS011;6658;53.080;7.428;2023-02-01T05:11:53;9.17;;;3.67;;
13185;SDS011;6658;53.080;7.428;2023-02-01T05:14:37;8.27;;;2.90;;
13185;SDS011;6658;53.080;7.428;2023-02-01T05:17:03;9.13;;;3.10;;
13185;SDS011;6658;53.080;7.428;2023-02-01T05:19:29;10.40;;;2.97;;
13185;SDS011;6658;53.080;7.428;2023-02-01T05:21:54;8.77;;;2.90;;
13185;SDS011;6658;53.080;7.428;2023-02-01T05:24:20;11.97;;;3.20;;
13185;SDS011;6658;53.080;7.428;2023-02-01T05:26:46;9.30;;;3.43;;
13185;SDS011;6658;53.080;7.428;2023-02-01T05:29:13;16.60;;;4.30;;
13185;SDS011;6658;53.080;7.428;2023-02-01T05:31:40;10.33;;;3.17;;
13185;SDS011;6658;53.080;7.428;2023-02-01T05:34:06;10.40;;;3.27;;
13185;SDS011;6658;53.080;7.428;2023-02-01T05:36:33;13.43;;;3.07;;
13185;SDS011;6658;53.080;7.428;2023-02-01T05:38:58;7.77;;;2.83;;
13185;SDS011;6658;53.080;7.428;2023-02-01T05:41:24;12.27;;;3.37;;
13185;SDS011;6658;53.080;7.428;2023-02-01T05:43:50;9.83;;;3.33;;
13185;SDS011;6658;53.080;7.428;2023-02-01T05:46:16;13.07;;;3.23;;
13185;SDS011;6658;53.080;7.428;2023-02-01T05:48:42;7.30;;;3.13;;
13185;SDS011;6658;53.080;7.428;2023-02-01T05:51:08;10.93;;;3.37;;
13185;SDS011;6658;53.080;7.428;2023-02-01T05:53:35;9.90;;;3.20;;
13185;SDS011;6658;53.080;7.428;2023-02-01T05:56:01;10.67;;;3.47;;
13185;SDS011;6658;53.080;7.428;2023-02-01T05:58:27;12.50;;;3.50;;
13185;SDS011;6658;53.080;7.428;2023-02-01T06:00:53;15.50;;;4.00;;
13185;SDS011;6658;53.080;7.428;2023-02-01T06:03:18;10.13;;;3.27;;
13185;SDS011;6658;53.080;7.428;2023-02-01T06:05:44;12.77;;;4.00;;
13185;SDS011;6658;53.080;7.428;2023-02-01T06:08:11;11.33;;;2.93;;
13185;SDS011;6658;53.080;7.428;2023-02-01T06:10:37;13.47;;;2.87;;
13185;SDS011;6658;53.080;7.428;2023-02-01T06:13:03;11.80;;;3.43;;
13185;SDS011;6658;53.080;7.428;2023-02-01T06:15:29;9.30;;;2.90;;
13185;SDS011;6658;53.080;7.428;2023-02-01T06:17:55;9.93;;;3.00;;
13185;SDS011;6658;53.080;7.428;2023-02-01T06:20:21;10.00;;;3.13;;
13185;SDS011;6658;53.080;7.428;2023-02-01T06:22:47;7.87;;;3.20;;
13185;SDS011;6658;53.080;7.428;2023-02-01T06:25:12;11.40;;;3.13;;
13185;SDS011;6658;53.080;7.428;2023-02-01T06:27:38;10.50;;;2.93;;
13185;SDS011;6658;53.080;7.428;2023-02-01T06:30:05;10.87;;;3.97;;
13185;SDS011;6658;53.080;7.428;2023-02-01T06:32:31;13.13;;;2.93;;
13185;SDS011;6658;53.080;7.428;2023-02-01T06:34:57;5.93;;;2.10;;
13185;SDS011;6658;53.080;7.428;2023-02-01T06:37:24;10.23;;;2.77;;
13185;SDS011;6658;53.080;7.428;2023-02-01T06:39:50;11.57;;;3.63;;
13185;SDS011;6658;53.080;7.428;2023-02-01T06:42:16;7.00;;;3.03;;
13185;SDS011;6658;53.080;7.428;2023-02-01T06:44:42;7.83;;;2.70;;
13185;SDS011;6658;53.080;7.428;2023-02-01T06:47:08;10.60;;;2.63;;
13185;SDS011;6658;53.080;7.428;2023-02-01T06:49:33;9.10;;;3.43;;
13185;SDS011;6658;53.080;7.428;2023-02-01T06:51:59;5.83;;;2.40;;
13185;SDS011;6658;53.080;7.428;2023-02-01T06:54:25;7.30;;;2.90;;
13185;SDS011;6658;53.080;7.428;2023-02-01T06:56:51;15.43;;;2.80;;
13185;SDS011;6658;53.080;7.428;2023-02-01T06:59:17;8.23;;;2.00;;
13185;SDS011;6658;53.080;7.428;2023-02-01T07:01:43;9.37;;;2.97;;
13185;SDS011;6658;53.080;7.428;2023-02-01T07:04:09;7.70;;;2.27;;
13185;SDS011;6658;53.080;7.428;2023-02-01T07:06:39;8.10;;;2.63;;
13185;SDS011;6658;53.080;7.428;2023-02-01T07:09:05;10.57;;;3.13;;
13185;SDS011;6658;53.080;7.428;2023-02-01T07:11:32;7.37;;;2.73;;
13185;SDS011;6658;53.080;7.428;2023-02-01T07:13:58;11.30;;;3.00;;
13185;SDS011;6658;53.080;7.428;2023-02-01T07:16:24;10.30;;;3.23;;
13185;SDS011;6658;53.080;7.428;2023-02-01T07:18:50;9.57;;;2.37;;
13185;SDS011;6658;53.080;7.428;2023-02-01T07:21:17;8.27;;;2.80;;
13185;SDS011;6658;53.080;7.428;2023-02-01T07:23:43;11.43;;;3.93;;
13185;SDS011;6658;53.080;7.428;2023-02-01T07:26:09;10.60;;;3.07;;
13185;SDS011;6658;53.080;7.428;2023-02-01T07:28:38;9.17;;;2.60;;
13185;SDS011;6658;53.080;7.428;2023-02-01T07:31:17;11.83;;;3.37;;
13185;SDS011;6658;53.080;7.428;2023-02-01T07:33:46;7.07;;;2.70;;
13185;SDS011;6658;53.080;7.428;2023-02-01T07:36:13;9.27;;;2.93;;
13185;SDS011;6658;53.080;7.428;2023-02-01T07:38:40;6.27;;;2.40;;
13185;SDS011;6658;53.080;7.428;2023-02-01T07:41:06;9.93;;;2.60;;
13185;SDS011;6658;53.080;7.428;2023-02-01T07:43:33;10.57;;;3.63;;
13185;SDS011;6658;53.080;7.428;2023-02-01T07:45:59;8.83;;;2.73;;
13185;SDS011;6658;53.080;7.428;2023-02-01T07:48:26;10.83;;;3.60;;
13185;SDS011;6658;53.080;7.428;2023-02-01T07:53:28;10.90;;;3.00;;
13185;SDS011;6658;53.080;7.428;2023-02-01T07:55:54;10.50;;;2.93;;
13185;SDS011;6658;53.080;7.428;2023-02-01T07:58:23;8.40;;;2.50;;
13185;SDS011;6658;53.080;7.428;2023-02-01T08:00:50;11.43;;;3.00;;
13185;SDS011;6658;53.080;7.428;2023-02-01T08:03:35;8.40;;;3.20;;
13185;SDS011;6658;53.080;7.428;2023-02-01T08:06:01;10.70;;;3.20;;
13185;SDS011;6658;53.080;7.428;2023-02-01T08:08:26;12.30;;;3.23;;
13185;SDS011;6658;53.080;7.428;2023-02-01T08:10:56;10.03;;;3.77;;
13185;SDS011;6658;53.080;7.428;2023-02-01T08:13:24;10.93;;;3.17;;
13185;SDS011;6658;53.080;7.428;2023-02-01T08:15:49;10.77;;;2.93;;
13185;SDS011;6658;53.080;7.428;2023-02-01T08:18:15;6.87;;;2.40;;
13185;SDS011;6658;53.080;7.428;2023-02-01T08:20:42;11.67;;;3.73;;
13185;SDS011;6658;53.080;7.428;2023-02-01T08:23:10;11.63;;;3.00;;
13185;SDS011;6658;53.080;7.428;2023-02-01T08:25:36;9.47;;;3.00;;
13185;SDS011;6658;53.080;7.428;2023-02-01T08:28:03;10.60;;;3.17;;
13185;SDS011;6658;53.080;7.428;2023-02-01T08:30:30;11.03;;;3.40;;
13185;SDS011;6658;53.080;7.428;2023-02-01T08:32:55;9.53;;;2.77;;
13185;SDS011;6658;53.080;7.428;2023-02-01T08:35:22;9.77;;;3.27;;
13185;SDS011;6658;53.080;7.428;2023-02-01T08:37:49;13.37;;;3.80;;
13185;SDS011;6658;53.080;7.428;2023-02-01T08:40:15;9.50;;;3.37;;
13185;SDS011;6658;53.080;7.428;2023-02-01T08:42:41;9.30;;;2.73;;
13185;SDS011;6658;53.080;7.428;2023-02-01T08:45:16;9.23;;;2.97;;
13185;SDS011;6658;53.080;7.428;2023-02-01T08:47:46;12.73;;;3.47;;
13185;SDS011;6658;53.080;7.428;2023-02-01T08:50:12;9.03;;;3.33;;
13185;SDS011;6658;53.080;7.428;2023-02-01T08:52:39;15.97;;;3.30;;
13185;SDS011;6658;53.080;7.428;2023-02-01T08:55:05;11.30;;;2.90;;
13185;SDS011;6658;53.080;7.428;2023-02-01T08:57:31;6.47;;;2.47;;
13185;SDS011;6658;53.080;7.428;2023-02-01T08:59:58;10.67;;;3.97;;
13185;SDS011;6658;53.080;7.428;2023-02-01T09:02:25;9.23;;;3.37;;
13185;SDS011;6658;53.080;7.428;2023-02-01T09:04:51;9.40;;;3.20;;
13185;SDS011;6658;53.080;7.428;2023-02-01T09:07:17;12.03;;;3.37;;
13185;SDS011;6658;53.080;7.428;2023-02-01T09:09:43;6.90;;;2.27;;
13185;SDS011;6658;53.080;7.428;2023-02-01T09:12:09;8.53;;;2.77;;
13185;SDS011;6658;53.080;7.428;2023-02-01T09:14:35;9.57;;;2.73;;
13185;SDS011;6658;53.080;7.428;2023-02-01T09:22:12;7.23;;;2.80;;
13185;SDS011;6658;53.080;7.428;2023-02-01T09:24:39;9.00;;;3.47;;
13185;SDS011;6658;53.080;7.428;2023-02-01T09:27:05;9.93;;;3.03;;
13185;SDS011;6658;53.080;7.428;2023-02-01T09:29:30;11.73;;;3.73;;
13185;SDS011;6658;53.080;7.428;2023-02-01T09:31:56;7.97;;;3.20;;
13185;SDS011;6658;53.080;7.428;2023-02-01T09:34:22;8.03;;;3.13;;
13185;SDS011;6658;53.080;7.428;2023-02-01T09:36:48;10.53;;;2.77;;
13185;SDS011;6658;53.080;7.428;2023-02-01T09:39:13;9.20;;;2.73;;
13185;SDS011;6658;53.080;7.428;2023-02-01T09:41:48;9.57;;;3.00;;
13185;SDS011;6658;53.080;7.428;2023-02-01T09:46:46;6.43;;;2.57;;
13185;SDS011;6658;53.080;7.428;2023-02-01T09:49:13;8.07;;;2.80;;
13185;SDS011;6658;53.080;7.428;2023-02-01T09:51:52;8.57;;;2.50;;
13185;SDS011;6658;53.080;7.428;2023-02-01T09:54:27;8.23;;;2.53;;
13185;SDS011;6658;53.080;7.428;2023-02-01T09:57:23;8.00;;;2.40;;
13185;SDS011;6658;53.080;7.428;2023-02-01T10:00:02;10.50;;;3.53;;
13185;SDS011;6658;53.080;7.428;2023-02-01T10:02:31;12.13;;;3.27;;
13185;SDS011;6658;53.080;7.428;2023-02-01T10:05:03;7.77;;;2.83;;
13185;SDS011;6658;53.080;7.428;2023-02-01T10:10:03;11.27;;;3.10;;
13185;SDS011;6658;53.080;7.428;2023-02-01T10:20:51;10.47;;;3.00;;
13185;SDS011;6658;53.080;7.428;2023-02-01T10:23:40;13.67;;;3.50;;
13185;SDS011;6658;53.080;7.428;2023-02-01T10:28:37;5.87;;;2.70;;
13185;SDS011;6658;53.080;7.428;2023-02-01T10:31:04;10.43;;;2.80;;
13185;SDS011;6658;53.080;7.428;2023-02-01T10:33:34;12.57;;;3.00;;
13185;SDS011;6658;53.080;7.428;2023-02-01T10:36:38;9.77;;;2.37;;
13185;SDS011;6658;53.080;7.428;2023-02-01T10:39:08;9.37;;;2.77;;
13185;SDS011;6658;53.080;7.428;2023-02-01T10:41:37;8.37;;;2.73;;
13185;SDS011;6658;53.080;7.428;2023-02-01T10:44:07;5.43;;;1.90;;
13185;SDS011;6658;53.080;7.428;2023-02-01T10:46:40;8.60;;;3.67;;
13185;SDS011;6658;53.080;7.428;2023-02-01T10:49:09;6.80;;;2.47;;
13185;SDS011;6658;53.080;7.428;2023-02-01T10:54:22;7.53;;;2.67;;
13185;SDS011;6658;53.080;7.428;2023-02-01T10:56:58;8.17;;;2.83;;
13185;SDS011;6658;53.080;7.428;2023-02-01T10:59:24;9.47;;;2.70;;
13185;SDS011;6658;53.080;7.428;2023-02-01T11:01:57;7.33;;;2.90;;
13185;SDS011;6658;53.080;7.428;2023-02-01T11:04:42;12.63;;;3.37;;
13185;SDS011;6658;53.080;7.428;2023-02-01T11:07:13;9.27;;;3.07;;
13185;SDS011;6658;53.080;7.428;2023-02-01T11:09:48;11.27;;;3.33;;
13185;SDS011;6658;53.080;7.428;2023-02-01T11:12:30;9.70;;;2.83;;
13185;SDS011;6658;53.080;7.428;2023-02-01T11:17:47;10.17;;;2.40;;
13185;SDS011;6658;53.080;7.428;2023-02-01T11:20:42;8.90;;;2.70;;
13185;SDS011;6658;53.080;7.428;2023-02-01T11:23:14;6.60;;;2.40;;
13185;SDS011;6658;53.080;7.428;2023-02-01T11:26:19;9.77;;;2.53;;
13185;SDS011;6658;53.080;7.428;2023-02-01T11:28:38;8.43;;;3.17;;
13185;SDS011;6658;53.080;7.428;2023-02-01T11:31:11;9.77;;;2.50;;
13185;SDS011;6658;53.080;7.428;2023-02-01T11:33:39;8.97;;;3.20;;
13185;SDS011;6658;53.080;7.428;2023-02-01T11:36:15;4.17;;;1.73;;
13185;SDS011;6658;53.080;7.428;2023-02-01T11:39:28;1.40;;;0.70;;
13185;SDS011;6658;53.080;7.428;2023-02-01T11:41:34;0.93;;;0.60;;
13185;SDS011;6658;53.080;7.428;2023-02-01T11:44:22;1.40;;;0.90;;
13185;SDS011;6658;53.080;7.428;2023-02-01T11:47:19;0.43;;;0.40;;
13185;SDS011;6658;53.080;7.428;2023-02-01T11:49:47;0.87;;;0.60;;
13185;SDS011;6658;53.080;7.428;2023-02-01T11:57:37;1.07;;;0.50;;
13185;SDS011;6658;53.080;7.428;2023-02-01T12:03:03;1.53;;;1.23;;
13185;SDS011;6658;53.080;7.428;2023-02-01T12:05:53;0.70;;;0.50;;
13185;SDS011;6658;53.080;7.428;2023-02-01T12:11:31;0.70;;;0.60;;
13185;SDS011;6658;53.080;7.428;2023-02-01T12:14:23;1.33;;;0.60;;
13185;SDS011;6658;53.080;7.428;2023-02-01T12:43:54;2.37;;;0.97;;
13185;SDS011;6658;53.080;7.428;2023-02-01T12:46:34;1.27;;;0.90;;
13185;SDS011;6658;53.080;7.428;2023-02-01T12:49:06;0.90;;;0.80;;
13185;SDS011;6658;53.080;7.428;2023-02-01T12:51:44;1.77;;;0.90;;
13185;SDS011;6658;53.080;7.428;2023-02-01T12:56:46;2.77;;;1.10;;
13185;SDS011;6658;53.080;7.428;2023-02-01T12:59:17;3.23;;;1.37;;
13185;SDS011;6658;53.080;7.428;2023-02-01T13:01:58;2.17;;;1.10;;
13185;SDS011;6658;53.080;7.428;2023-02-01T13:04:33;3.17;;;1.50;;
13185;SDS011;6658;53.080;7.428;2023-02-01T13:12:18;4.93;;;1.70;;
13185;SDS011;6658;53.080;7.428;2023-02-01T13:14:56;6.57;;;1.70;;
13185;SDS011;6658;53.080;7.428;2023-02-01T13:17:28;6.83;;;1.90;;
13185;SDS011;6658;53.080;7.428;2023-02-01T13:19:59;7.77;;;2.03;;
13185;SDS011;6658;53.080;7.428;2023-02-01T13:22:42;6.07;;;1.80;;
13185;SDS011;6658;53.080;7.428;2023-02-01T13:25:20;6.10;;;2.07;;
13185;SDS011;6658;53.080;7.428;2023-02-01T13:27:49;8.97;;;2.33;;
13185;SDS011;6658;53.080;7.428;2023-02-01T13:30:20;7.03;;;2.60;;
13185;SDS011;6658;53.080;7.428;2023-02-01T13:36:08;7.97;;;1.87;;
13185;SDS011;6658;53.080;7.428;2023-02-01T13:44:26;14.93;;;3.60;;
13185;SDS011;6658;53.080;7.428;2023-02-01T13:46:57;9.07;;;2.50;;
13185;SDS011;6658;53.080;7.428;2023-02-01T13:49:27;10.97;;;2.90;;
13185;SDS011;6658;53.080;7.428;2023-02-01T13:51:57;10.53;;;2.90;;
13185;SDS011;6658;53.080;7.428;2023-02-01T13:56:55;7.30;;;2.37;;
13185;SDS011;6658;53.080;7.428;2023-02-01T14:05:01;5.40;;;2.37;;
13185;SDS011;6658;53.080;7.428;2023-02-01T14:07:26;10.60;;;3.23;;
13185;SDS011;6658;53.080;7.428;2023-02-01T14:09:53;7.97;;;2.40;;
13185;SDS011;6658;53.080;7.428;2023-02-01T14:15:22;8.13;;;3.07;;
13185;SDS011;6658;53.080;7.428;2023-02-01T14:17:52;8.10;;;3.30;;
13185;SDS011;6658;53.080;7.428;2023-02-01T14:23:09;8.00;;;2.40;;
13185;SDS011;6658;53.080;7.428;2023-02-01T14:25:38;7.53;;;2.60;;
13185;SDS011;6658;53.080;7.428;2023-02-01T14:28:39;5.17;;;1.90;;
13185;SDS011;6658;53.080;7.428;2023-02-01T14:30:57;6.93;;;2.30;;
13185;SDS011;6658;53.080;7.428;2023-02-01T14:33:25;6.60;;;2.30;;
13185;SDS011;6658;53.080;7.428;2023-02-01T14:36:11;7.83;;;2.27;;
13185;SDS011;6658;53.080;7.428;2023-02-01T14:38:39;9.07;;;2.30;;
13185;SDS011;6658;53.080;7.428;2023-02-01T14:43:49;4.50;;;1.90;;
13185;SDS011;6658;53.080;7.428;2023-02-01T14:49:30;4.50;;;2.63;;
13185;SDS011;6658;53.080;7.428;2023-02-01T14:51:58;10.40;;;3.13;;
13185;SDS011;6658;53.080;7.428;2023-02-01T14:54:27;7.07;;;2.50;;
13185;SDS011;6658;53.080;7.428;2023-02-01T14:56:53;5.83;;;2.67;;
13185;SDS011;6658;53.080;7.428;2023-02-01T14:59:20;5.50;;;1.83;;
13185;SDS011;6658;53.080;7.428;2023-02-01T15:01:53;8.30;;;3.17;;
13185;SDS011;6658;53.080;7.428;2023-02-01T15:04:24;12.07;;;4.77;;
13185;SDS011;6658;53.080;7.428;2023-02-01T15:06:54;5.20;;;2.03;;
13185;SDS011;6658;53.080;7.428;2023-02-01T15:09:33;8.80;;;2.50;;
13185;SDS011;6658;53.080;7.428;2023-02-01T15:14:43;9.17;;;3.10;;
13185;SDS011;6658;53.080;7.428;2023-02-01T15:17:29;8.13;;;2.20;;
13185;SDS011;6658;53.080;7.428;2023-02-01T15:20:04;9.33;;;2.00;;
13185;SDS011;6658;53.080;7.428;2023-02-01T15:22:40;4.70;;;2.73;;
13185;SDS011;6658;53.080;7.428;2023-02-01T15:25:20;6.33;;;3.27;;
13185;SDS011;6658;53.080;7.428;2023-02-01T15:27:47;8.23;;;2.33;;
13185;SDS011;6658;53.080;7.428;2023-02-01T15:30:17;8.40;;;2.60;;
13185;SDS011;6658;53.080;7.428;2023-02-01T15:32:48;9.17;;;2.27;;
13185;SDS011;6658;53.080;7.428;2023-02-01T15:35:33;4.20;;;1.77;;
13185;SDS011;6658;53.080;7.428;2023-02-01T15:40:56;9.67;;;2.83;;
13185;SDS011;6658;53.080;7.428;2023-02-01T15:43:27;9.47;;;2.40;;
13185;SDS011;6658;53.080;7.428;2023-02-01T15:46:06;7.23;;;2.20;;
13185;SDS011;6658;53.080;7.428;2023-02-01T15:48:36;6.77;;;2.80;;
13185;SDS011;6658;53.080;7.428;2023-02-01T15:51:11;6.07;;;2.47;;
13185;SDS011;6658;53.080;7.428;2023-02-01T15:53:51;11.67;;;3.40;;
13185;SDS011;6658;53.080;7.428;2023-02-01T15:56:23;7.70;;;2.97;;
13185;SDS011;6658;53.080;7.428;2023-02-01T15:58:54;6.33;;;1.90;;
13185;SDS011;6658;53.080;7.428;2023-02-01T16:01:22;10.47;;;3.37;;
13185;SDS011;6658;53.080;7.428;2023-02-01T16:03:48;5.77;;;2.40;;
13185;SDS011;6658;53.080;7.428;2023-02-01T16:08:51;6.27;;;2.50;;
13185;SDS011;6658;53.080;7.428;2023-02-01T16:11:27;10.30;;;3.03;;
13185;SDS011;6658;53.080;7.428;2023-02-01T16:13:55;12.97;;;2.60;;
13185;SDS011;6658;53.080;7.428;2023-02-01T16:16:22;8.47;;;2.17;;
13185;SDS011;6658;53.080;7.428;2023-02-01T16:18:48;8.63;;;2.60;;
13185;SDS011;6658;53.080;7.428;2023-02-01T16:21:14;10.63;;;2.67;;
13185;SDS011;6658;53.080;7.428;2023-02-01T16:23:39;6.17;;;2.27;;
13185;SDS011;6658;53.080;7.428;2023-02-01T16:26:05;9.30;;;2.83;;
13185;SDS011;6658;53.080;7.428;2023-02-01T16:28:31;7.50;;;2.50;;
13185;SDS011;6658;53.080;7.428;2023-02-01T16:30:58;9.80;;;2.27;;
13185;SDS011;6658;53.080;7.428;2023-02-01T16:33:25;5.63;;;2.20;;
13185;SDS011;6658;53.080;7.428;2023-02-01T16:35:51;12.07;;;3.60;;
13185;SDS011;6658;53.080;7.428;2023-02-01T16:38:20;10.30;;;2.67;;
13185;SDS011;6658;53.080;7.428;2023-02-01T16:40:47;10.77;;;3.33;;
13185;SDS011;6658;53.080;7.428;2023-02-01T16:43:15;9.03;;;3.27;;
13185;SDS011;6658;53.080;7.428;2023-02-01T16:45:42;10.03;;;3.33;;
13185;SDS011;6658;53.080;7.428;2023-02-01T16:48:17;17.17;;;3.93;;
13185;SDS011;6658;53.080;7.428;2023-02-01T16:50:45;12.00;;;2.87;;
13185;SDS011;6658;53.080;7.428;2023-02-01T16:53:12;12.27;;;3.00;;
13185;SDS011;6658;53.080;7.428;2023-02-01T16:55:41;5.80;;;1.90;;
13185;SDS011;6658;53.080;7.428;2023-02-01T16:58:08;12.87;;;3.30;;
13185;SDS011;6658;53.080;7.428;2023-02-01T17:00:34;7.80;;;2.43;;
13185;SDS011;6658;53.080;7.428;2023-02-01T17:03:02;10.50;;;3.20;;
13185;SDS011;6658;53.080;7.428;2023-02-01T17:05:30;5.37;;;1.87;;
13185;SDS011;6658;53.080;7.428;2023-02-01T17:07:58;10.67;;;3.37;;
13185;SDS011;6658;53.080;7.428;2023-02-01T17:10:29;12.80;;;3.10;;
13185;SDS011;6658;53.080;7.428;2023-02-01T17:12:55;8.83;;;2.07;;
13185;SDS011;6658;53.080;7.428;2023-02-01T17:15:22;9.40;;;2.50;;
13185;SDS011;6658;53.080;7.428;2023-02-01T17:17:51;7.30;;;3.00;;
13185;SDS011;6658;53.080;7.428;2023-02-01T17:20:21;9.80;;;2.40;;
13185;SDS011;6658;53.080;7.428;2023-02-01T17:22:49;10.57;;;2.47;;
13185;SDS011;6658;53.080;7.428;2023-02-01T17:25:17;9.90;;;2.90;;
13185;SDS011;6658;53.080;7.428;2023-02-01T17:27:46;8.23;;;2.60;;
13185;SDS011;6658;53.080;7.428;2023-02-01T17:30:13;9.03;;;2.93;;
13185;SDS011;6658;53.080;7.428;2023-02-01T17:32:40;6.77;;;2.60;;
13185;SDS011;6658;53.080;7.428;2023-02-01T17:35:12;10.03;;;2.80;;
13185;SDS011;6658;53.080;7.428;2023-02-01T17:37:46;12.20;;;2.67;;
13185;SDS011;6658;53.080;7.428;2023-02-01T17:40:12;7.27;;;2.37;;